createdAt,value
2023-01-25T00:02:04.390Z,6.47
2023-01-25T00:04:30.666Z,7.57
2023-01-25T00:06:57.445Z,7.07
2023-01-25T00:09:26.043Z,6.88
2023-01-25T00:11:52.641Z,6.57
2023-01-25T00:14:22.686Z,6.60
2023-01-25T00:16:48.786Z,7.55
2023-01-25T00:19:16.417Z,7.20
2023-01-25T00:21:42.850Z,7.72
2023-01-25T00:24:14.753Z,7.43
2023-01-25T00:26:43.347Z,6.97
2023-01-25T00:29:12.664Z,7.03
2023-01-25T00:32:01.481Z,7.22
2023-01-25T00:34:33.743Z,6.82
2023-01-25T00:37:39.346Z,6.90
2023-01-25T00:40:06.323Z,6.95
2023-01-25T00:42:32.499Z,8.05
2023-01-25T00:45:00.404Z,7.07
2023-01-25T00:47:28.715Z,6.93
2023-01-25T00:49:54.829Z,6.88
2023-01-25T00:52:22.349Z,6.07
2023-01-25T00:54:48.771Z,7.10
2023-01-25T00:57:18.373Z,7.38
2023-01-25T00:59:46.852Z,7.15
2023-01-25T01:02:13.024Z,6.90
2023-01-25T01:04:39.171Z,6.18
2023-01-25T01:07:08.435Z,6.28
2023-01-25T01:09:38.448Z,6.82
2023-01-25T01:12:04.856Z,6.68
2023-01-25T01:14:32.442Z,6.28
2023-01-25T01:16:59.425Z,6.32
2023-01-25T01:19:25.558Z,6.90
2023-01-25T01:21:51.664Z,6.15
2023-01-25T01:24:17.780Z,6.45
2023-01-25T01:26:45.597Z,6.43
2023-01-25T01:29:14.024Z,6.55
2023-01-25T01:31:41.711Z,6.53
2023-01-25T01:34:33.500Z,6.38
2023-01-25T01:36:59.553Z,6.80
2023-01-25T01:39:25.654Z,6.80
2023-01-25T01:41:51.713Z,6.72
2023-01-25T01:44:40.747Z,6.90
2023-01-25T01:47:41.197Z,6.20
2023-01-25T01:50:30.367Z,6.30
2023-01-25T01:52:56.448Z,6.15
2023-01-25T01:55:24.477Z,6.15
2023-01-25T01:57:57.465Z,7.20
2023-01-25T02:00:33.652Z,6.30
2023-01-25T02:03:00.984Z,6.07
2023-01-25T02:05:59.697Z,6.28
2023-01-25T02:08:27.299Z,6.10
2023-01-25T02:10:53.383Z,5.93
2023-01-25T02:13:21.589Z,6.05
2023-01-25T02:15:53.507Z,6.20
2023-01-25T02:18:19.858Z,6.03
2023-01-25T02:20:57.937Z,5.75
2023-01-25T02:24:03.853Z,7.00
2023-01-25T02:26:30.763Z,6.03
2023-01-25T02:29:06.022Z,6.20
2023-01-25T02:31:32.916Z,6.05
2023-01-25T02:33:59.284Z,6.13
2023-01-25T02:36:35.344Z,5.82
2023-01-25T02:39:19.334Z,6.05
2023-01-25T02:41:47.502Z,5.85
2023-01-25T02:44:16.547Z,6.18
2023-01-25T02:46:45.195Z,5.97
2023-01-25T02:49:12.969Z,6.00
2023-01-25T02:51:44.792Z,5.93
2023-01-25T02:54:14.391Z,6.22
2023-01-25T02:56:40.733Z,5.55
2023-01-25T02:59:08.515Z,6.30
2023-01-25T03:01:36.804Z,5.78
2023-01-25T03:04:05.748Z,6.63
2023-01-25T03:06:33.788Z,5.80
2023-01-25T03:09:00.479Z,6.25
2023-01-25T03:11:26.623Z,5.75
2023-01-25T03:13:54.539Z,5.75
2023-01-25T03:16:22.636Z,6.13
2023-01-25T03:18:51.999Z,6.20
2023-01-25T03:21:20.878Z,5.68
2023-01-25T03:23:59.668Z,5.75
2023-01-25T03:26:27.422Z,6.07
2023-01-25T03:28:55.841Z,5.70
2023-01-25T03:31:25.505Z,5.75
2023-01-25T03:33:51.596Z,5.93
2023-01-25T03:36:21.531Z,6.03
2023-01-25T03:38:51.435Z,5.68
2023-01-25T03:41:18.436Z,5.88
2023-01-25T03:43:46.455Z,5.45
2023-01-25T03:46:12.603Z,5.70
2023-01-25T03:48:38.712Z,5.80
2023-01-25T03:51:06.475Z,5.60
2023-01-25T03:53:33.507Z,5.60
2023-01-25T03:56:25.005Z,5.13
2023-01-25T03:58:52.463Z,5.32
2023-01-25T04:01:18.700Z,4.75
2023-01-25T04:03:44.917Z,5.60
2023-01-25T04:06:11.315Z,5.30
2023-01-25T04:08:38.442Z,5.65
2023-01-25T04:11:09.510Z,5.43
2023-01-25T04:13:39.165Z,5.68
2023-01-25T04:16:11.925Z,5.40
2023-01-25T04:18:40.132Z,5.60
2023-01-25T04:21:31.194Z,5.22
2023-01-25T04:23:57.439Z,5.40
2023-01-25T04:26:23.612Z,5.28
2023-01-25T04:28:53.472Z,5.28
2023-01-25T04:31:23.544Z,5.15
2023-01-25T04:33:50.704Z,5.07
2023-01-25T04:36:22.847Z,4.90
2023-01-25T04:38:48.997Z,5.00
2023-01-25T04:41:16.449Z,5.25
2023-01-25T04:43:42.536Z,5.10
2023-01-25T04:46:09.105Z,4.80
2023-01-25T04:48:38.445Z,5.88
2023-01-25T04:51:04.692Z,5.40
2023-01-25T04:53:30.788Z,4.95
2023-01-25T04:55:56.915Z,5.35
2023-01-25T04:58:23.001Z,5.20
2023-01-25T05:00:49.092Z,4.75
2023-01-25T05:03:15.189Z,5.05
2023-01-25T05:05:47.684Z,4.70
2023-01-25T05:08:13.752Z,4.80
2023-01-25T05:10:39.800Z,5.03
2023-01-25T05:13:05.860Z,4.40
2023-01-25T05:15:32.479Z,4.53
2023-01-25T05:18:03.035Z,4.78
2023-01-25T05:20:32.504Z,4.45
2023-01-25T05:22:58.600Z,4.50
2023-01-25T05:25:45.007Z,4.20
2023-01-25T05:28:11.073Z,4.38
2023-01-25T05:30:38.536Z,4.50
2023-01-25T05:33:05.654Z,4.55
2023-01-25T05:35:33.477Z,3.97
2023-01-25T05:38:00.506Z,3.85
2023-01-25T05:40:27.538Z,3.70
2023-01-25T05:43:03.403Z,3.90
2023-01-25T05:45:29.554Z,3.58
2023-01-25T05:47:57.509Z,3.53
2023-01-25T05:50:25.887Z,3.40
2023-01-25T05:52:52.707Z,3.20
2023-01-25T05:55:44.074Z,3.38
2023-01-25T05:58:11.501Z,2.70
2023-01-25T06:00:37.540Z,2.97
2023-01-25T06:03:03.658Z,2.25
2023-01-25T06:05:29.820Z,1.70
2023-01-25T06:07:56.961Z,1.85
2023-01-25T06:10:23.013Z,1.50
2023-01-25T06:12:50.592Z,1.85
2023-01-25T06:15:20.521Z,1.75
2023-01-25T06:17:46.789Z,1.58
2023-01-25T06:20:12.930Z,1.50
2023-01-25T06:22:40.516Z,1.40
2023-01-25T06:25:07.606Z,1.55
2023-01-25T06:27:33.959Z,1.73
2023-01-25T06:29:59.995Z,1.70
2023-01-25T06:32:51.554Z,1.30
2023-01-25T06:35:17.624Z,1.42
2023-01-25T06:37:43.787Z,1.50
2023-01-25T06:40:11.935Z,1.65
2023-01-25T06:42:38.013Z,2.13
2023-01-25T06:45:04.531Z,2.10
2023-01-25T06:47:30.650Z,2.47
2023-01-25T06:49:58.550Z,2.28
2023-01-25T06:52:24.627Z,2.70
2023-01-25T06:54:52.537Z,2.33
2023-01-25T06:57:20.546Z,2.92
2023-01-25T06:59:46.601Z,2.80
2023-01-25T07:02:15.328Z,3.20
2023-01-25T07:04:42.610Z,2.80
2023-01-25T07:07:09.306Z,3.08
2023-01-25T07:09:35.848Z,2.90
2023-01-25T07:12:04.099Z,3.08
2023-01-25T07:14:31.946Z,2.90
2023-01-25T07:16:58.186Z,2.63
2023-01-25T07:19:27.582Z,3.10
2023-01-25T07:21:53.645Z,2.72
2023-01-25T07:24:20.027Z,3.17
2023-01-25T07:26:50.400Z,2.90
2023-01-25T07:29:19.670Z,3.20
2023-01-25T07:31:46.900Z,3.45
2023-01-25T07:34:13.870Z,3.20
2023-01-25T07:36:40.971Z,2.97
2023-01-25T07:39:11.169Z,3.28
2023-01-25T07:41:39.502Z,3.22
2023-01-25T07:44:06.209Z,3.20
2023-01-25T07:46:32.579Z,3.03
2023-01-25T07:48:58.671Z,3.13
2023-01-25T07:51:29.549Z,3.35
2023-01-25T07:54:01.339Z,3.47
2023-01-25T07:56:37.161Z,3.35
2023-01-25T07:59:04.209Z,3.17
2023-01-25T08:01:33.451Z,3.78
2023-01-25T08:04:03.993Z,3.47
2023-01-25T08:06:43.694Z,3.40
2023-01-25T08:09:19.261Z,3.00
2023-01-25T08:11:48.762Z,2.85
2023-01-25T08:14:18.750Z,3.22
2023-01-25T08:16:44.911Z,3.60
2023-01-25T08:19:11.332Z,3.75
2023-01-25T08:21:37.650Z,3.13
2023-01-25T08:24:07.331Z,3.78
2023-01-25T08:26:58.289Z,3.75
2023-01-25T08:29:27.313Z,4.15
2023-01-25T08:31:54.612Z,3.80
2023-01-25T08:34:20.705Z,3.90
2023-01-25T08:36:46.769Z,3.70
2023-01-25T08:39:12.891Z,4.68
2023-01-25T08:41:42.651Z,4.13
2023-01-25T08:44:12.683Z,5.00
2023-01-25T08:46:38.833Z,4.15
2023-01-25T08:49:05.008Z,4.32
2023-01-25T08:51:32.142Z,4.05
2023-01-25T08:54:24.672Z,4.55
2023-01-25T08:56:50.734Z,4.45
2023-01-25T08:59:20.611Z,4.82
2023-01-25T09:01:47.753Z,4.55
2023-01-25T09:07:19.745Z,4.63
2023-01-25T09:09:49.822Z,4.63
2023-01-25T09:12:19.636Z,4.50
2023-01-25T09:14:45.670Z,4.28
2023-01-25T09:17:15.608Z,4.57
2023-01-25T09:19:47.570Z,4.78
2023-01-25T09:22:15.662Z,4.55
2023-01-25T09:24:45.630Z,4.80
2023-01-25T09:27:12.613Z,4.78
2023-01-25T09:29:49.625Z,4.60
2023-01-25T09:32:29.789Z,5.05
2023-01-25T09:34:57.622Z,4.65
2023-01-25T09:37:24.231Z,4.63
2023-01-25T09:39:50.363Z,4.95
2023-01-25T09:42:49.771Z,5.32
2023-01-25T09:45:36.067Z,4.78
2023-01-25T09:48:26.873Z,5.18
2023-01-25T09:51:18.559Z,4.90
2023-01-25T09:53:57.971Z,5.43
2023-01-25T09:56:32.474Z,5.13
2023-01-25T09:59:16.638Z,4.90
2023-01-25T10:02:24.351Z,5.63
2023-01-25T10:04:56.550Z,4.70
2023-01-25T10:07:37.484Z,4.30
2023-01-25T10:12:57.663Z,4.22
2023-01-25T10:15:33.779Z,4.05
2023-01-25T10:18:21.945Z,4.25
2023-01-25T10:21:04.199Z,4.85
2023-01-25T10:24:02.772Z,4.90
2023-01-25T10:26:33.372Z,5.10
2023-01-25T10:29:28.544Z,4.72
2023-01-25T10:32:12.238Z,5.30
2023-01-25T10:34:56.306Z,5.28
2023-01-25T10:37:31.866Z,5.53
2023-01-25T10:40:26.237Z,4.78
2023-01-25T10:43:03.004Z,5.45
2023-01-25T10:45:29.102Z,6.10
2023-01-25T10:48:05.163Z,5.45
2023-01-25T10:50:49.183Z,6.03
2023-01-25T10:53:27.862Z,5.55
2023-01-25T10:56:09.755Z,6.00
2023-01-25T10:58:45.905Z,5.75
2023-01-25T11:01:25.358Z,5.60
2023-01-25T11:03:51.470Z,6.40
2023-01-25T11:06:37.835Z,6.22
2023-01-25T11:09:36.733Z,6.88
2023-01-25T11:12:20.355Z,6.68
2023-01-25T11:14:50.891Z,6.03
2023-01-25T11:17:29.594Z,6.47
2023-01-25T11:20:19.915Z,6.50
2023-01-25T11:22:52.831Z,6.90
2023-01-25T11:25:36.221Z,6.55
2023-01-25T11:28:17.811Z,6.00
2023-01-25T11:30:45.189Z,6.40
2023-01-25T11:33:17.752Z,6.05
2023-01-25T11:36:28.113Z,5.88
2023-01-25T11:39:12.969Z,5.88
2023-01-25T11:42:18.257Z,5.97
2023-01-25T11:45:04.524Z,6.32
2023-01-25T11:48:09.236Z,6.32
2023-01-25T11:50:46.452Z,6.32
2023-01-25T11:53:58.213Z,5.35
2023-01-25T11:56:49.834Z,5.55
2023-01-25T11:59:54.198Z,5.97
2023-01-25T12:03:12.244Z,5.40
2023-01-25T12:06:02.229Z,5.93
2023-01-25T12:09:06.702Z,6.15
2023-01-25T12:11:48.977Z,5.60
2023-01-25T12:14:26.636Z,5.70
2023-01-25T12:17:23.270Z,5.75
2023-01-25T12:20:27.470Z,5.72
2023-01-25T12:23:29.587Z,5.53
2023-01-25T12:26:35.744Z,5.75
2023-01-25T12:29:19.432Z,5.00
2023-01-25T12:32:09.792Z,5.25
2023-01-25T12:34:38.270Z,5.70
2023-01-25T12:37:35.396Z,5.13
2023-01-25T12:40:25.846Z,5.80
2023-01-25T12:42:58.292Z,5.07
2023-01-25T12:45:34.283Z,4.93
2023-01-25T12:48:23.794Z,5.53
2023-01-25T12:50:57.912Z,5.40
2023-01-25T12:53:44.218Z,5.25
2023-01-25T12:56:34.567Z,5.45
2023-01-25T12:59:16.287Z,5.25
2023-01-25T13:01:53.543Z,5.60
2023-01-25T13:04:34.865Z,4.75
2023-01-25T13:07:22.607Z,5.28
2023-01-25T13:10:17.085Z,5.22
2023-01-25T13:13:00.151Z,5.35
2023-01-25T13:15:41.194Z,4.82
2023-01-25T13:18:36.420Z,5.47
2023-01-25T13:21:08.026Z,5.07
2023-01-25T13:23:51.394Z,4.78
2023-01-25T13:26:23.332Z,5.10
2023-01-25T13:28:51.819Z,5.00
2023-01-25T13:31:52.142Z,5.28
2023-01-25T13:34:54.007Z,5.50
2023-01-25T13:37:23.409Z,5.60
2023-01-25T13:40:10.273Z,5.38
2023-01-25T13:42:38.475Z,4.82
2023-01-25T13:45:13.643Z,5.20
2023-01-25T13:47:42.591Z,5.50
2023-01-25T13:50:33.603Z,5.25
2023-01-25T13:53:28.873Z,5.20
2023-01-25T13:55:57.263Z,5.30
2023-01-25T13:58:49.412Z,5.05
2023-01-25T14:01:19.030Z,5.50
2023-01-25T14:03:49.059Z,5.15
2023-01-25T14:06:19.938Z,5.20
2023-01-25T14:08:51.536Z,5.10
2023-01-25T14:11:27.679Z,4.82
2023-01-25T14:14:33.405Z,4.90
2023-01-25T14:17:08.698Z,4.82
2023-01-25T14:19:38.477Z,4.70
2023-01-25T14:22:30.271Z,5.30
2023-01-25T14:25:22.002Z,4.32
2023-01-25T14:27:59.143Z,4.93
2023-01-25T14:30:31.583Z,4.70
2023-01-25T14:33:03.575Z,4.22
2023-01-25T14:35:54.724Z,4.85
2023-01-25T14:38:33.859Z,5.03
2023-01-25T14:41:59.328Z,5.15
2023-01-25T14:44:28.565Z,4.72
2023-01-25T14:47:32.909Z,4.50
2023-01-25T14:50:38.387Z,3.88
2023-01-25T14:53:24.263Z,4.45
2023-01-25T14:55:51.275Z,4.10
2023-01-25T14:58:22.232Z,4.15
2023-01-25T15:01:02.698Z,4.38
2023-01-25T15:03:30.576Z,4.18
2023-01-25T15:06:02.895Z,4.15
2023-01-25T15:08:35.930Z,4.28
2023-01-25T15:11:43.083Z,4.20
2023-01-25T15:14:37.545Z,4.75
2023-01-25T15:17:03.788Z,4.45
2023-01-25T15:19:30.922Z,5.00
2023-01-25T15:21:59.226Z,4.57
2023-01-25T15:24:58.307Z,4.90
2023-01-25T15:27:25.694Z,4.32
2023-01-25T15:29:51.821Z,5.10
2023-01-25T15:32:20.588Z,4.65
2023-01-25T15:34:50.978Z,4.18
2023-01-25T15:37:18.782Z,4.43
2023-01-25T15:39:46.763Z,4.30
2023-01-25T15:42:12.842Z,4.30
2023-01-25T15:44:38.910Z,4.68
2023-01-25T15:47:05.134Z,4.72
2023-01-25T15:49:31.727Z,4.55
2023-01-25T15:51:58.880Z,5.43
2023-01-25T15:54:25.693Z,4.00
2023-01-25T15:56:58.385Z,4.60
2023-01-25T15:59:24.886Z,4.40
2023-01-25T16:01:50.953Z,4.47
2023-01-25T16:04:18.818Z,4.90
2023-01-25T16:06:54.014Z,4.30
2023-01-25T16:09:26.658Z,4.13
2023-01-25T16:11:54.607Z,4.57
2023-01-25T16:14:23.037Z,3.60
2023-01-25T16:16:51.218Z,3.33
2023-01-25T16:19:24.427Z,3.33
2023-01-25T16:21:51.872Z,3.05
2023-01-25T16:24:18.209Z,3.15
2023-01-25T16:26:56.019Z,2.97
2023-01-25T16:29:22.569Z,3.00
2023-01-25T16:31:48.956Z,2.40
2023-01-25T16:34:16.867Z,2.83
2023-01-25T16:36:49.317Z,2.97
2023-01-25T16:39:28.423Z,2.70
2023-01-25T16:41:56.558Z,2.50
2023-01-25T16:44:22.660Z,2.58
2023-01-25T16:46:49.554Z,2.20
2023-01-25T16:49:44.418Z,2.30
2023-01-25T16:52:12.050Z,2.40
2023-01-25T16:54:40.085Z,2.90
2023-01-25T16:57:19.829Z,2.83
2023-01-25T16:59:47.846Z,1.98
2023-01-25T17:02:13.936Z,2.05
2023-01-25T17:04:40.042Z,2.60
2023-01-25T17:07:11.315Z,1.90
2023-01-25T17:09:37.613Z,2.50
2023-01-25T17:12:09.205Z,2.33
2023-01-25T17:14:40.221Z,1.90
2023-01-25T17:17:06.478Z,2.00
2023-01-25T17:19:32.568Z,1.70
2023-01-25T17:21:58.612Z,1.77
2023-01-25T17:24:25.421Z,1.88
2023-01-25T17:26:55.985Z,1.90
2023-01-25T17:29:25.851Z,1.90
2023-01-25T17:31:53.219Z,1.95
2023-01-25T17:34:19.554Z,2.15
2023-01-25T17:36:49.712Z,2.10
2023-01-25T17:39:40.725Z,1.83
2023-01-25T17:42:08.408Z,1.50
2023-01-25T17:44:34.822Z,1.80
2023-01-25T17:47:02.894Z,1.50
2023-01-25T17:49:29.972Z,1.58
2023-01-25T17:51:56.053Z,1.73
2023-01-25T17:54:22.200Z,1.50
2023-01-25T17:56:53.427Z,2.00
2023-01-25T17:59:19.483Z,1.75
2023-01-25T18:01:47.647Z,1.88
2023-01-25T18:04:17.685Z,2.00
2023-01-25T18:06:44.226Z,1.83
2023-01-25T18:09:10.325Z,1.85
2023-01-25T18:11:37.729Z,1.50
2023-01-25T18:14:11.859Z,1.90
2023-01-25T18:16:42.260Z,1.75
2023-01-25T18:19:10.181Z,1.70
2023-01-25T18:21:36.535Z,1.95
2023-01-25T18:24:25.393Z,1.80
2023-01-25T18:26:59.316Z,2.00
2023-01-25T18:29:32.827Z,1.73
2023-01-25T18:32:03.637Z,1.80
2023-01-25T18:34:29.938Z,1.88
2023-01-25T18:37:00.353Z,2.03
2023-01-25T18:39:27.531Z,1.80
2023-01-25T18:41:54.335Z,1.95
2023-01-25T18:44:22.860Z,1.75
2023-01-25T18:46:50.893Z,1.90
2023-01-25T18:49:16.953Z,1.80
2023-01-25T18:52:10.551Z,1.90
2023-01-25T18:54:40.857Z,1.85
2023-01-25T18:57:12.465Z,1.70
2023-01-25T18:59:39.787Z,2.10
2023-01-25T19:02:06.982Z,1.95
2023-01-25T19:04:33.882Z,2.13
2023-01-25T19:07:01.469Z,1.90
2023-01-25T19:09:28.245Z,1.80
2023-01-25T19:11:54.862Z,2.20
2023-01-25T19:14:21.484Z,2.20
2023-01-25T19:16:51.537Z,1.80
2023-01-25T19:19:20.310Z,1.92
2023-01-25T19:21:49.264Z,2.25
2023-01-25T19:24:19.319Z,1.90
2023-01-25T19:26:47.646Z,1.88
2023-01-25T19:29:14.850Z,2.10
2023-01-25T19:31:45.023Z,2.00
2023-01-25T19:34:11.243Z,2.10
2023-01-25T19:36:43.823Z,2.00
2023-01-25T19:39:09.941Z,1.85
2023-01-25T19:41:39.056Z,1.90
2023-01-25T19:44:06.513Z,2.00
2023-01-25T19:46:35.452Z,2.10
2023-01-25T19:49:07.493Z,2.15
2023-01-25T19:51:41.405Z,2.10
2023-01-25T19:54:16.131Z,1.90
2023-01-25T19:56:45.043Z,2.17
2023-01-25T19:59:20.483Z,1.90
2023-01-25T20:01:47.101Z,2.00
2023-01-25T20:04:34.773Z,2.33
2023-01-25T20:07:00.830Z,2.13
2023-01-25T20:09:28.356Z,1.98
2023-01-25T20:11:56.193Z,2.67
2023-01-25T20:14:23.122Z,2.45
2023-01-25T20:16:52.000Z,2.10
2023-01-25T20:19:18.317Z,2.20
2023-01-25T20:21:49.312Z,2.08
2023-01-25T20:24:19.024Z,2.30
2023-01-25T20:26:50.553Z,2.30
2023-01-25T20:29:20.797Z,2.30
2023-01-25T20:31:48.024Z,1.77
2023-01-25T20:34:20.128Z,2.28
2023-01-25T20:36:47.187Z,2.55
2023-01-25T20:39:15.302Z,2.03
2023-01-25T20:41:42.244Z,2.50
2023-01-25T20:44:10.511Z,2.20
2023-01-25T20:46:38.439Z,2.65
2023-01-25T20:49:10.547Z,2.50
2023-01-25T20:51:36.640Z,2.67
2023-01-25T20:54:02.787Z,2.20
2023-01-25T20:56:32.105Z,2.40
2023-01-25T20:58:58.221Z,2.80
2023-01-25T21:01:37.736Z,2.63
2023-01-25T21:04:08.806Z,2.38
2023-01-25T21:06:38.714Z,2.30
2023-01-25T21:09:05.020Z,2.50
2023-01-25T21:11:35.023Z,2.50
2023-01-25T21:14:04.997Z,2.65
2023-01-25T21:16:31.097Z,2.33
2023-01-25T21:18:58.639Z,2.55
2023-01-25T21:21:27.583Z,2.63
2023-01-25T21:24:05.964Z,2.78
2023-01-25T21:26:36.305Z,2.67
2023-01-25T21:29:03.962Z,2.42
2023-01-25T21:31:34.779Z,2.65
2023-01-25T21:34:02.513Z,2.40
2023-01-25T21:36:30.210Z,2.50
2023-01-25T21:38:56.353Z,2.38
2023-01-25T21:41:25.086Z,2.38
2023-01-25T21:44:22.200Z,2.38
2023-01-25T21:49:56.459Z,2.88
2023-01-25T21:52:22.570Z,2.45
2023-01-25T21:54:48.679Z,2.97
2023-01-25T21:57:18.038Z,2.67
2023-01-25T21:59:44.239Z,2.85
2023-01-25T22:02:13.321Z,2.53
2023-01-25T22:04:39.517Z,2.83
2023-01-25T22:07:07.927Z,2.72
2023-01-25T22:09:35.140Z,2.97
2023-01-25T22:12:01.367Z,2.58
2023-01-25T22:14:31.047Z,2.80
2023-01-25T22:16:57.410Z,2.72
2023-01-25T22:19:23.617Z,2.75
2023-01-25T22:21:49.718Z,2.33
2023-01-25T22:24:16.193Z,2.85
2023-01-25T22:26:53.036Z,2.53
2023-01-25T22:29:19.972Z,2.78
2023-01-25T22:31:46.160Z,2.92
2023-01-25T22:34:16.077Z,2.90
2023-01-25T22:36:45.959Z,2.85
2023-01-25T22:39:16.104Z,2.63
2023-01-25T22:41:46.163Z,2.80
2023-01-25T22:44:13.820Z,3.00
2023-01-25T22:46:39.894Z,2.83
2023-01-25T22:49:06.968Z,2.90
2023-01-25T22:51:33.077Z,3.05
2023-01-25T22:54:04.890Z,2.88
2023-01-25T22:56:34.063Z,2.80
2023-01-25T22:59:02.345Z,2.42
2023-01-25T23:01:33.638Z,2.47
2023-01-25T23:04:25.031Z,2.63
2023-01-25T23:07:04.569Z,2.30
2023-01-25T23:09:30.708Z,2.30
2023-01-25T23:11:57.994Z,2.65
2023-01-25T23:14:42.631Z,2.95
2023-01-25T23:17:27.528Z,2.60
2023-01-25T23:19:55.008Z,2.85
2023-01-25T23:22:22.077Z,2.90
2023-01-25T23:24:52.034Z,2.70
2023-01-25T23:27:53.233Z,2.55
2023-01-25T23:30:19.310Z,2.65
2023-01-25T23:32:49.277Z,2.72
2023-01-25T23:35:40.660Z,2.65
2023-01-25T23:38:14.306Z,2.80
2023-01-25T23:40:41.515Z,3.00
2023-01-25T23:43:07.745Z,2.90
2023-01-25T23:45:35.030Z,2.85
2023-01-25T23:48:01.063Z,2.75
2023-01-25T23:50:53.524Z,2.72
2023-01-25T23:53:20.011Z,2.70
2023-01-25T23:55:56.091Z,2.75
2023-01-25T23:58:24.017Z,2.55
